createdAt,value
2019-02-21T00:00:24.225Z,15.57
2019-02-21T00:02:54.761Z,14.20
2019-02-21T00:05:25.107Z,15.17
2019-02-21T00:07:55.451Z,14.37
2019-02-21T00:10:25.868Z,15.03
2019-02-21T00:12:56.216Z,14.67
2019-02-21T00:15:26.659Z,14.90
2019-02-21T00:17:57.007Z,16.30
2019-02-21T00:20:27.406Z,14.30
2019-02-21T00:22:57.811Z,14.87
2019-02-21T00:30:53.194Z,13.50
2019-02-21T00:33:23.662Z,13.60
2019-02-21T00:35:54.158Z,14.23
2019-02-21T00:38:24.610Z,14.17
2019-02-21T00:40:55.090Z,14.23
2019-02-21T00:43:25.536Z,13.30
2019-02-21T00:45:56.027Z,14.27
2019-02-21T00:48:26.465Z,13.27
2019-02-21T00:50:56.950Z,13.67
2019-02-21T00:53:27.404Z,13.50
2019-02-21T00:55:57.941Z,14.47
2019-02-21T00:58:28.474Z,13.70
2019-02-21T01:00:58.906Z,13.33
2019-02-21T01:03:29.354Z,13.97
2019-02-21T01:05:59.797Z,13.13
2019-02-21T01:08:30.250Z,13.20
2019-02-21T01:11:00.705Z,15.13
2019-02-21T01:13:31.178Z,13.00
2019-02-21T01:16:01.673Z,13.87
2019-02-21T01:18:32.146Z,13.33
2019-02-21T01:21:02.580Z,13.73
2019-02-21T01:23:34.143Z,12.73
2019-02-21T01:26:04.582Z,14.73
2019-02-21T01:28:35.075Z,13.40
2019-02-21T01:31:06.478Z,13.47
2019-02-21T01:33:36.942Z,13.33
2019-02-21T01:36:07.410Z,12.93
2019-02-21T01:38:37.284Z,12.10
2019-02-21T01:41:07.666Z,13.53
2019-02-21T01:43:37.464Z,13.17
2019-02-21T01:46:07.850Z,12.70
2019-02-21T01:48:37.844Z,12.40
2019-02-21T01:51:08.237Z,13.40
2019-02-21T01:53:38.031Z,13.53
2019-02-21T01:56:08.538Z,12.87
2019-02-21T01:58:38.979Z,12.17
2019-02-21T02:01:09.563Z,12.30
2019-02-21T02:03:40.077Z,12.67
2019-02-21T02:06:10.531Z,13.80
2019-02-21T02:08:41.969Z,14.33
2019-02-21T02:11:12.401Z,13.37
2019-02-21T02:13:42.944Z,12.63
2019-02-21T02:16:13.442Z,12.10
2019-02-21T02:18:43.914Z,12.13
2019-02-21T02:21:14.337Z,12.03
2019-02-21T02:23:44.806Z,14.60
2019-02-21T02:26:15.242Z,13.23
2019-02-21T02:28:45.758Z,12.23
2019-02-21T02:31:22.683Z,12.60
2019-02-21T02:33:48.283Z,12.43
2019-02-21T02:36:18.722Z,13.03
2019-02-21T02:38:49.258Z,11.83
2019-02-21T02:41:19.694Z,12.10
2019-02-21T02:43:50.152Z,12.93
2019-02-21T02:46:20.610Z,12.57
2019-02-21T02:48:52.029Z,12.80
2019-02-21T02:51:22.502Z,11.27
2019-02-21T02:53:52.987Z,11.13
2019-02-21T02:56:23.498Z,11.83
2019-02-21T02:58:54.011Z,11.80
2019-02-21T03:01:34.329Z,13.37
2019-02-21T03:07:55.491Z,14.23
2019-02-21T03:10:25.793Z,11.03
2019-02-21T03:12:56.210Z,11.50
2019-02-21T03:15:26.592Z,11.63
2019-02-21T03:17:56.911Z,12.57
2019-02-21T03:20:27.282Z,12.47
2019-02-21T03:22:57.625Z,12.40
2019-02-21T03:25:28.076Z,12.57
2019-02-21T03:27:58.426Z,11.73
2019-02-21T03:30:28.927Z,11.87
2019-02-21T03:32:59.386Z,10.10
2019-02-21T03:35:29.796Z,11.00
2019-02-21T03:38:00.317Z,12.40
2019-02-21T03:40:30.733Z,11.23
2019-02-21T03:43:01.147Z,12.00
2019-02-21T03:45:31.568Z,10.53
2019-02-21T03:48:01.985Z,10.50
2019-02-21T03:50:32.331Z,10.70
2019-02-21T03:53:02.667Z,9.53
2019-02-21T03:55:33.120Z,10.33
2019-02-21T03:58:03.532Z,11.27
2019-02-21T04:00:34.013Z,10.57
2019-02-21T04:03:04.547Z,10.93
2019-02-21T04:05:34.261Z,10.03
2019-02-21T04:08:04.680Z,9.93
2019-02-21T04:10:36.011Z,9.83
2019-02-21T04:13:06.429Z,10.47
2019-02-21T04:15:36.803Z,10.03
2019-02-21T04:18:07.141Z,10.60
2019-02-21T04:20:37.584Z,10.70
2019-02-21T04:23:07.922Z,10.50
2019-02-21T04:25:38.343Z,9.63
2019-02-21T04:28:09.706Z,10.30
2019-02-21T04:30:40.121Z,9.37
2019-02-21T04:33:11.543Z,9.03
2019-02-21T04:35:41.891Z,9.77
2019-02-21T04:38:12.255Z,9.20
2019-02-21T04:40:42.015Z,9.77
2019-02-21T04:43:13.267Z,9.57
2019-02-21T04:45:43.603Z,9.60
2019-02-21T04:48:14.109Z,8.97
2019-02-21T04:50:44.439Z,9.73
2019-02-21T04:53:14.888Z,8.67
2019-02-21T04:55:45.225Z,9.47
2019-02-21T04:58:15.572Z,9.33
2019-02-21T05:00:45.938Z,9.00
2019-02-21T05:03:16.268Z,8.27
2019-02-21T05:05:46.675Z,8.27
2019-02-21T05:08:17.102Z,8.67
2019-02-21T05:10:47.541Z,8.47
2019-02-21T05:13:17.875Z,8.53
2019-02-21T05:15:48.224Z,7.90
2019-02-21T05:18:18.570Z,9.17
2019-02-21T05:20:48.903Z,8.07
2019-02-21T05:23:19.249Z,8.87
2019-02-21T05:25:49.595Z,8.10
2019-02-21T05:28:41.202Z,8.50
2019-02-21T05:31:17.192Z,9.10
2019-02-21T05:33:55.679Z,9.30
2019-02-21T05:37:02.948Z,8.50
2019-02-21T05:40:03.041Z,8.93
2019-02-21T05:42:50.453Z,9.17
2019-02-21T05:45:46.869Z,9.27
2019-02-21T05:48:35.005Z,9.13
2019-02-21T05:51:22.927Z,9.83
2019-02-21T05:53:58.455Z,10.57
2019-02-21T05:56:47.737Z,10.73
2019-02-21T05:59:32.867Z,10.43
2019-02-21T06:02:11.436Z,11.07
2019-02-21T06:04:52.174Z,10.50
2019-02-21T06:07:30.103Z,11.17
2019-02-21T06:10:15.615Z,12.90
2019-02-21T06:13:02.231Z,13.47
2019-02-21T06:15:37.366Z,14.47
2019-02-21T06:18:18.697Z,13.43
2019-02-21T06:20:57.668Z,13.67
2019-02-21T06:23:49.208Z,12.90
2019-02-21T06:26:49.967Z,13.13
2019-02-21T06:29:39.243Z,14.40
2019-02-21T06:32:14.242Z,13.67
2019-02-21T06:34:41.791Z,14.97
2019-02-21T06:37:12.839Z,13.70
2019-02-21T06:39:44.411Z,13.23
2019-02-21T06:42:14.819Z,14.37
2019-02-21T06:44:44.609Z,15.37
2019-02-21T06:47:14.938Z,15.57
2019-02-21T06:49:44.715Z,15.93
2019-02-21T06:52:15.770Z,14.97
2019-02-21T06:54:47.859Z,14.53
2019-02-21T06:57:18.273Z,14.17
2019-02-21T06:59:48.620Z,12.73
2019-02-21T07:02:19.000Z,13.03
2019-02-21T07:04:49.416Z,14.17
2019-02-21T07:07:19.867Z,14.27
2019-02-21T07:09:50.220Z,13.73
2019-02-21T07:12:20.608Z,13.57
2019-02-21T07:14:50.957Z,14.33
2019-02-21T07:17:21.412Z,14.20
2019-02-21T07:19:51.756Z,14.43
2019-02-21T07:22:22.599Z,14.17
2019-02-21T07:24:56.590Z,15.23
2019-02-21T07:27:27.036Z,16.10
2019-02-21T07:29:57.681Z,15.03
2019-02-21T07:32:28.033Z,14.90
2019-02-21T07:34:58.520Z,15.90
2019-02-21T07:37:28.878Z,15.47
2019-02-21T07:39:59.317Z,14.77
2019-02-21T07:42:29.895Z,14.73
2019-02-21T07:45:00.441Z,15.80
2019-02-21T07:47:30.887Z,16.23
2019-02-21T07:50:01.251Z,17.57
2019-02-21T07:52:31.768Z,17.20
2019-02-21T07:55:02.530Z,15.50
2019-02-21T07:57:33.052Z,16.93
2019-02-21T08:00:03.459Z,16.77
2019-02-21T08:02:33.876Z,15.20
2019-02-21T08:05:04.402Z,17.17
2019-02-21T08:07:34.744Z,17.87
2019-02-21T08:10:05.248Z,16.97
2019-02-21T08:12:35.636Z,16.83
2019-02-21T08:15:06.614Z,17.20
2019-02-21T08:17:37.076Z,18.70
2019-02-21T08:20:09.028Z,19.23
2019-02-21T08:22:39.463Z,18.03
2019-02-21T08:25:10.314Z,18.27
2019-02-21T08:27:42.614Z,19.17
2019-02-21T08:30:14.804Z,20.40
2019-02-21T08:33:19.436Z,20.17
2019-02-21T08:35:49.911Z,19.23
2019-02-21T08:38:20.333Z,20.87
2019-02-21T08:40:53.171Z,21.07
2019-02-21T08:43:22.832Z,20.73
2019-02-21T08:45:53.307Z,21.63
2019-02-21T08:48:23.735Z,19.33
2019-02-21T08:50:54.192Z,18.87
2019-02-21T08:53:24.599Z,20.53
2019-02-21T08:55:55.981Z,20.37
2019-02-21T08:58:26.532Z,18.23
2019-02-21T09:00:56.968Z,19.20
2019-02-21T09:03:27.363Z,19.43
2019-02-21T09:05:57.829Z,19.60
2019-02-21T09:08:33.579Z,20.07
2019-02-21T09:11:00.264Z,19.57
2019-02-21T09:13:30.660Z,19.80
2019-02-21T09:16:01.134Z,20.17
2019-02-21T09:18:31.559Z,20.70
2019-02-21T09:21:02.111Z,20.40
2019-02-21T09:23:32.529Z,21.97
2019-02-21T09:26:03.063Z,22.17
2019-02-21T09:28:33.560Z,20.97
2019-02-21T09:31:03.924Z,19.97
2019-02-21T09:33:34.295Z,20.77
2019-02-21T09:36:04.656Z,19.73
2019-02-21T09:38:35.012Z,20.80
2019-02-21T09:41:05.594Z,21.53
2019-02-21T09:43:36.145Z,20.07
2019-02-21T09:46:06.493Z,22.17
2019-02-21T09:48:36.835Z,21.97
2019-02-21T09:51:07.201Z,20.63
2019-02-21T09:53:37.707Z,20.97
2019-02-21T09:56:09.687Z,20.57
2019-02-21T09:58:40.068Z,21.53
2019-02-21T10:01:11.445Z,22.00
2019-02-21T10:03:44.097Z,22.57
2019-02-21T10:06:14.093Z,21.63
2019-02-21T10:08:44.527Z,21.83
2019-02-21T10:11:14.868Z,21.83
2019-02-21T10:13:45.399Z,21.97
2019-02-21T10:16:15.768Z,21.57
2019-02-21T10:18:46.176Z,24.07
2019-02-21T10:21:16.528Z,23.67
2019-02-21T10:23:46.979Z,23.70
2019-02-21T10:26:17.324Z,28.70
2019-02-21T10:28:48.062Z,23.10
2019-02-21T10:31:19.012Z,23.30
2019-02-21T10:33:49.429Z,23.57
2019-02-21T10:36:19.839Z,24.53
2019-02-21T10:38:50.232Z,24.00
2019-02-21T10:41:20.592Z,23.17
2019-02-21T10:43:52.020Z,22.53
2019-02-21T10:46:22.434Z,22.30
2019-02-21T10:48:52.821Z,21.67
2019-02-21T10:51:23.348Z,22.83
2019-02-21T10:53:53.079Z,25.33
2019-02-21T10:56:23.380Z,22.50
2019-02-21T10:58:53.792Z,23.30
2019-02-21T11:01:24.167Z,22.80
2019-02-21T11:03:54.537Z,25.03
2019-02-21T11:06:24.956Z,22.63
2019-02-21T11:08:55.316Z,21.80
2019-02-21T11:11:25.971Z,23.07
2019-02-21T11:13:56.811Z,22.57
2019-02-21T11:16:27.247Z,25.70
2019-02-21T11:18:57.633Z,24.03
2019-02-21T11:21:28.096Z,23.90
2019-02-21T11:23:58.460Z,22.53
2019-02-21T11:26:29.136Z,24.53
2019-02-21T11:28:59.515Z,23.20
2019-02-21T11:31:29.960Z,22.90
2019-02-21T11:34:00.347Z,22.80
2019-02-21T11:36:30.803Z,21.77
2019-02-21T11:39:01.252Z,23.30
2019-02-21T11:41:33.310Z,22.60
2019-02-21T11:44:03.876Z,22.93
2019-02-21T11:46:34.235Z,22.70
2019-02-21T11:49:04.983Z,25.07
2019-02-21T11:51:35.328Z,24.27
2019-02-21T11:54:05.724Z,24.90
2019-02-21T11:56:36.079Z,24.33
2019-02-21T11:59:06.467Z,25.97
2019-02-21T12:01:39.556Z,24.90
2019-02-21T12:04:08.972Z,23.97
2019-02-21T12:06:39.416Z,25.20
2019-02-21T12:09:11.451Z,26.70
2019-02-21T12:11:42.211Z,26.87
2019-02-21T12:14:12.563Z,26.10
2019-02-21T12:16:42.927Z,25.20
2019-02-21T12:19:13.372Z,25.33
2019-02-21T12:21:43.713Z,25.60
2019-02-21T12:24:14.079Z,25.83
2019-02-21T12:26:44.424Z,25.63
2019-02-21T12:29:14.767Z,25.50
2019-02-21T12:31:45.103Z,25.73
2019-02-21T12:34:15.491Z,25.63
2019-02-21T12:36:45.881Z,25.00
2019-02-21T12:39:16.344Z,25.77
2019-02-21T12:41:46.798Z,24.97
2019-02-21T12:44:17.224Z,25.93
2019-02-21T12:46:47.680Z,26.67
2019-02-21T12:49:20.304Z,31.67
2019-02-21T12:51:50.753Z,30.80
2019-02-21T12:54:21.115Z,29.33
2019-02-21T12:56:51.527Z,31.30
2019-02-21T12:59:21.973Z,29.53
2019-02-21T13:01:52.339Z,27.20
2019-02-21T13:04:22.696Z,27.23
2019-02-21T13:06:53.113Z,25.90
2019-02-21T13:09:23.488Z,28.33
2019-02-21T13:11:53.308Z,27.47
2019-02-21T13:14:24.537Z,25.83
2019-02-21T13:16:54.963Z,25.17
2019-02-21T13:19:25.316Z,26.13
2019-02-21T13:21:55.700Z,28.27
2019-02-21T13:24:26.108Z,24.97
2019-02-21T13:26:56.559Z,25.53
2019-02-21T13:29:26.909Z,23.83
2019-02-21T13:31:57.273Z,24.50
2019-02-21T13:34:27.712Z,24.47
2019-02-21T13:36:58.073Z,23.53
2019-02-21T13:39:28.531Z,23.37
2019-02-21T13:41:58.899Z,22.40
2019-02-21T13:44:29.299Z,23.70
2019-02-21T13:46:59.712Z,24.97
2019-02-21T13:49:30.096Z,22.60
2019-02-21T13:52:00.841Z,24.30
2019-02-21T13:54:31.318Z,23.37
2019-02-21T13:57:01.779Z,23.17
2019-02-21T13:59:34.894Z,22.87
2019-02-21T14:02:04.338Z,22.77
2019-02-21T14:04:34.766Z,24.93
2019-02-21T14:07:05.187Z,23.33
2019-02-21T14:09:37.872Z,22.63
2019-02-21T14:12:07.892Z,21.10
2019-02-21T14:14:38.393Z,21.27
2019-02-21T14:17:08.755Z,23.17
2019-02-21T14:19:39.216Z,22.40
2019-02-21T14:22:09.679Z,21.43
2019-02-21T14:24:40.056Z,21.47
2019-02-21T14:27:10.412Z,21.50
2019-02-21T14:29:40.805Z,20.37
2019-02-21T14:32:11.268Z,21.23
2019-02-21T14:34:41.611Z,22.83
2019-02-21T14:37:11.968Z,23.13
2019-02-21T14:39:42.432Z,25.83
2019-02-21T14:42:12.912Z,23.70
2019-02-21T14:44:42.654Z,22.07
2019-02-21T14:47:12.980Z,23.50
2019-02-21T14:49:42.787Z,22.07
2019-02-21T14:52:13.095Z,21.93
2019-02-21T14:54:42.853Z,23.37
2019-02-21T14:57:15.357Z,22.43
2019-02-21T14:59:47.065Z,24.40
2019-02-21T15:02:17.475Z,25.00
2019-02-21T15:04:47.971Z,25.03
2019-02-21T15:07:18.380Z,23.50
2019-02-21T15:09:49.729Z,32.97
2019-02-21T15:12:20.227Z,23.57
2019-02-21T15:14:50.672Z,25.97
2019-02-21T15:17:21.108Z,25.07
2019-02-21T15:19:51.483Z,24.77
2019-02-21T15:22:21.935Z,23.83
2019-02-21T15:24:52.419Z,25.37
2019-02-21T15:27:23.560Z,24.20
2019-02-21T15:29:54.039Z,24.63
2019-02-21T15:32:24.470Z,25.70
2019-02-21T15:34:54.923Z,25.40
2019-02-21T15:37:25.345Z,25.23
2019-02-21T15:39:55.691Z,25.83
2019-02-21T15:42:26.087Z,25.07
2019-02-21T15:44:56.454Z,25.30
2019-02-21T15:47:26.877Z,25.40
2019-02-21T15:49:58.344Z,27.80
2019-02-21T15:52:28.706Z,28.03
2019-02-21T15:55:11.353Z,26.47
2019-02-21T15:57:32.732Z,26.53
2019-02-21T16:00:03.159Z,25.73
2019-02-21T16:02:34.120Z,25.47
2019-02-21T16:05:04.619Z,27.57
2019-02-21T16:07:35.057Z,28.80
2019-02-21T16:10:06.961Z,30.50
2019-02-21T16:12:37.875Z,29.13
2019-02-21T16:15:09.804Z,30.03
2019-02-21T16:17:40.434Z,30.20
2019-02-21T16:20:12.123Z,29.90
2019-02-21T16:22:42.751Z,31.53
2019-02-21T16:25:15.142Z,31.27
2019-02-21T16:27:45.612Z,29.70
2019-02-21T16:30:16.043Z,30.30
2019-02-21T16:32:46.474Z,28.50
2019-02-21T16:35:17.062Z,28.37
2019-02-21T16:37:47.574Z,28.37
2019-02-21T16:40:18.041Z,29.87
2019-02-21T16:42:49.508Z,30.63
2019-02-21T16:45:19.884Z,31.27
2019-02-21T16:47:50.299Z,29.73
2019-02-21T16:50:29.303Z,28.40
2019-02-21T16:52:52.760Z,30.57
2019-02-21T16:55:23.258Z,29.83
2019-02-21T16:57:53.679Z,29.60
2019-02-21T17:00:24.092Z,31.17
2019-02-21T17:02:54.604Z,30.30
2019-02-21T17:05:25.088Z,31.80
2019-02-21T17:07:57.423Z,30.07
2019-02-21T17:10:27.768Z,31.77
2019-02-21T17:12:58.511Z,32.27
2019-02-21T17:15:28.933Z,30.33
2019-02-21T17:18:03.829Z,30.53
2019-02-21T17:20:31.345Z,30.17
2019-02-21T17:23:01.757Z,29.40
2019-02-21T17:25:32.179Z,31.43
2019-02-21T17:28:02.611Z,30.67
2019-02-21T17:30:32.959Z,31.30
2019-02-21T17:33:03.373Z,28.93
2019-02-21T17:35:33.738Z,30.87
2019-02-21T17:38:04.109Z,31.10
2019-02-21T17:40:34.525Z,31.27
2019-02-21T17:43:04.972Z,29.77
2019-02-21T17:45:35.308Z,30.23
2019-02-21T17:48:05.841Z,29.73
2019-02-21T17:50:36.284Z,29.33
2019-02-21T17:53:06.704Z,30.40
2019-02-21T17:55:37.102Z,30.10
2019-02-21T17:58:07.552Z,31.43
2019-02-21T18:00:38.327Z,29.03
2019-02-21T18:03:09.583Z,29.07
2019-02-21T18:05:39.963Z,30.43
2019-02-21T18:08:10.572Z,31.00
2019-02-21T18:10:40.933Z,29.00
2019-02-21T18:13:11.483Z,29.27
2019-02-21T18:15:41.911Z,29.20
2019-02-21T18:18:12.332Z,29.90
2019-02-21T18:20:42.691Z,29.40
2019-02-21T18:23:13.055Z,29.07
2019-02-21T18:25:50.163Z,34.50
2019-02-21T18:28:20.596Z,31.53
2019-02-21T18:30:51.017Z,30.17
2019-02-21T18:33:21.380Z,28.83
2019-02-21T18:35:54.117Z,30.40
2019-02-21T18:38:24.545Z,29.23
2019-02-21T18:40:54.927Z,29.80
2019-02-21T18:43:25.352Z,32.50
2019-02-21T18:45:57.637Z,33.23
2019-02-21T18:48:27.880Z,31.80
2019-02-21T18:50:58.272Z,32.23
2019-02-21T18:53:28.761Z,33.67
2019-02-21T18:55:59.247Z,32.63
2019-02-21T18:58:29.696Z,31.47
2019-02-21T19:01:00.068Z,31.10
2019-02-21T19:03:30.512Z,31.60
2019-02-21T19:06:00.860Z,32.17
2019-02-21T19:08:32.185Z,33.23
2019-02-21T19:11:01.992Z,33.50
2019-02-21T19:13:32.244Z,32.57
2019-02-21T19:16:02.059Z,33.87
2019-02-21T19:18:32.484Z,31.57
2019-02-21T19:21:02.288Z,31.93
2019-02-21T19:23:32.546Z,31.47
2019-02-21T19:26:02.331Z,30.77
2019-02-21T19:28:32.752Z,31.00
2019-02-21T19:31:04.759Z,31.27
2019-02-21T19:33:35.052Z,29.60
2019-02-21T19:36:05.715Z,30.33
2019-02-21T19:38:36.324Z,29.33
2019-02-21T19:41:06.859Z,32.47
2019-02-21T19:43:37.340Z,29.37
2019-02-21T19:46:07.716Z,30.57
2019-02-21T19:48:38.168Z,28.77
2019-02-21T19:51:08.839Z,30.07
2019-02-21T19:53:39.208Z,27.77
2019-02-21T19:56:09.591Z,27.23
2019-02-21T19:58:39.948Z,28.83
2019-02-21T20:01:10.344Z,28.17
2019-02-21T20:03:40.767Z,27.30
2019-02-21T20:06:11.177Z,27.33
2019-02-21T20:08:41.680Z,28.30
2019-02-21T20:11:12.160Z,27.53
2019-02-21T20:13:42.516Z,27.83
2019-02-21T20:16:12.903Z,28.93
2019-02-21T20:18:43.263Z,27.27
2019-02-21T20:21:13.823Z,27.07
2019-02-21T20:23:44.190Z,27.27
2019-02-21T20:26:18.402Z,27.33
2019-02-21T20:28:46.703Z,27.67
2019-02-21T20:31:17.085Z,27.70
2019-02-21T20:33:46.932Z,27.07
2019-02-21T20:36:17.227Z,27.70
2019-02-21T20:38:46.931Z,27.63
2019-02-21T20:41:17.301Z,29.80
2019-02-21T20:43:48.735Z,27.27
2019-02-21T20:46:19.127Z,28.43
2019-02-21T20:48:50.647Z,27.43
2019-02-21T20:51:21.028Z,28.23
2019-02-21T20:53:51.376Z,27.80
2019-02-21T20:56:21.850Z,28.10
2019-02-21T20:58:52.308Z,27.30
2019-02-21T21:01:22.772Z,27.93
2019-02-21T21:03:53.279Z,27.50
2019-02-21T21:06:23.744Z,27.93
2019-02-21T21:08:54.172Z,27.73
2019-02-21T21:11:24.540Z,27.77
2019-02-21T21:13:54.948Z,27.00
2019-02-21T21:16:25.296Z,26.93
2019-02-21T21:18:55.748Z,27.00
2019-02-21T21:21:26.095Z,27.40
2019-02-21T21:23:56.524Z,25.73
2019-02-21T21:26:26.864Z,26.37
2019-02-21T21:28:57.236Z,25.87
2019-02-21T21:31:27.587Z,26.57
2019-02-21T21:33:58.103Z,26.67
2019-02-21T21:36:29.873Z,27.07
2019-02-21T21:39:00.605Z,25.43
2019-02-21T21:41:32.575Z,25.97
2019-02-21T21:44:02.956Z,25.67
2019-02-21T21:46:33.391Z,25.47
2019-02-21T21:49:03.907Z,25.07
2019-02-21T21:51:34.259Z,24.07
2019-02-21T21:54:04.611Z,25.20
2019-02-21T21:56:35.003Z,23.80
2019-02-21T21:59:05.475Z,23.70
2019-02-21T22:01:35.852Z,23.27
2019-02-21T22:04:05.544Z,22.97
2019-02-21T22:06:35.846Z,23.97
2019-02-21T22:09:06.087Z,22.57
2019-02-21T22:11:36.611Z,22.30
2019-02-21T22:14:06.982Z,23.23
2019-02-21T22:16:37.407Z,22.90
2019-02-21T22:19:07.787Z,23.80
2019-02-21T22:21:38.135Z,23.87
2019-02-21T22:24:08.499Z,24.00
2019-02-21T22:26:38.860Z,22.97
2019-02-21T22:29:09.294Z,21.97
2019-02-21T22:31:39.632Z,22.97
2019-02-21T22:34:10.046Z,21.30
2019-02-21T22:36:40.390Z,22.13
2019-02-21T22:39:16.386Z,21.23
2019-02-21T22:41:43.060Z,22.77
2019-02-21T22:44:13.403Z,20.47
2019-02-21T22:46:43.844Z,19.93
2019-02-21T22:49:16.530Z,19.23
2019-02-21T22:51:46.272Z,19.57
2019-02-21T22:54:17.568Z,19.10
2019-02-21T22:56:48.038Z,19.07
2019-02-21T22:59:18.479Z,18.07
2019-02-21T23:01:49.536Z,18.50
2019-02-21T23:04:43.448Z,17.47
2019-02-21T23:07:46.727Z,17.50
2019-02-21T23:10:17.183Z,16.87
2019-02-21T23:12:47.630Z,16.83
2019-02-21T23:15:18.071Z,15.33
2019-02-21T23:17:48.541Z,14.10
2019-02-21T23:20:18.953Z,13.27
2019-02-21T23:22:49.309Z,13.43
2019-02-21T23:25:19.751Z,12.53
2019-02-21T23:27:49.449Z,12.70
2019-02-21T23:30:19.871Z,11.70
2019-02-21T23:32:50.287Z,12.10
2019-02-21T23:35:21.376Z,12.97
2019-02-21T23:37:51.743Z,12.87
2019-02-21T23:40:23.319Z,12.30
2019-02-21T23:42:53.702Z,12.80
2019-02-21T23:45:24.060Z,11.40
2019-02-21T23:47:54.428Z,12.13
2019-02-21T23:50:24.800Z,12.70
2019-02-21T23:52:55.136Z,12.40
2019-02-21T23:55:25.528Z,12.63
2019-02-21T23:57:55.903Z,9.93
